Terminal Aerodrome Forecast
Issued by NWS

Home | Current Version | Previous Version | Text Only | Print | Product List | Glossary Off
Versions: 1 2 3 4 5 6 7 8 9 10 11 12 13 14 15 16

000
FTUS43 KGRB 221500 AAA
TAFCWA
TAF AMD
KCWA 221511Z 2215/2312 23012G20KT P6SM BKN015 BKN025
     FM221800 28014G25KT P6SM SCT025 BKN035
     FM222200 32012G20KT P6SM SCT035
     FM230200 35006KT P6SM SKC=

USA.gov is the U.S. government's official web portal to all federal, state and local government web resources and services.